createdAt,value
2019-05-26T00:01:14.544Z,100875.86
2019-05-26T00:03:48.380Z,100877.64
2019-05-26T00:06:22.099Z,100876.95
2019-05-26T00:08:55.778Z,100871.70
2019-05-26T00:11:29.440Z,100865.70
2019-05-26T00:14:04.721Z,100874.55
2019-05-26T00:16:38.907Z,100873.33
2019-05-26T00:19:13.041Z,100865.97
2019-05-26T00:21:46.466Z,100867.38
2019-05-26T00:24:20.042Z,100866.47
2019-05-26T00:26:53.488Z,100867.38
2019-05-26T00:29:27.231Z,100833.83
2019-05-26T00:32:00.984Z,100870.77
2019-05-26T00:34:35.147Z,100871.55
2019-05-26T00:37:08.892Z,100868.97
2019-05-26T00:39:42.565Z,100874.73
2019-05-26T00:42:16.242Z,100877.36
2019-05-26T00:44:51.113Z,100873.52
2019-05-26T00:47:24.824Z,100864.00
2019-05-26T00:49:58.585Z,100875.28
2019-05-26T00:52:33.483Z,100872.16
2019-05-26T00:55:07.562Z,100868.31
2019-05-26T00:57:41.241Z,100873.42
2019-05-26T01:00:15.537Z,100868.89
2019-05-26T01:02:49.721Z,100871.14
2019-05-26T01:05:23.539Z,100866.79
2019-05-26T01:08:06.348Z,100870.74
2019-05-26T01:10:33.979Z,100874.64
2019-05-26T01:13:09.828Z,100867.66
2019-05-26T01:15:44.905Z,100865.47
2019-05-26T01:18:19.962Z,100865.03
2019-05-26T01:20:53.772Z,100866.83
2019-05-26T01:23:27.468Z,100862.03
2019-05-26T01:26:01.210Z,100870.00
2019-05-26T01:28:34.824Z,100875.67
2019-05-26T01:31:10.127Z,100875.20
2019-05-26T01:33:44.150Z,100878.22
2019-05-26T01:36:19.115Z,100872.39
2019-05-26T01:38:55.342Z,100865.76
2019-05-26T01:41:29.040Z,100873.69
2019-05-26T01:44:03.056Z,100870.58
2019-05-26T01:46:37.866Z,100868.34
2019-05-26T01:49:11.321Z,100870.48
2019-05-26T01:51:45.118Z,100872.56
2019-05-26T01:54:18.685Z,100871.60
2019-05-26T01:56:52.502Z,100868.94
2019-05-26T01:59:26.112Z,100869.32
2019-05-26T02:02:00.390Z,100861.44
2019-05-26T02:04:34.074Z,100865.84
2019-05-26T02:07:07.734Z,100859.73
2019-05-26T02:09:41.215Z,100853.16
2019-05-26T02:12:14.697Z,100856.26
2019-05-26T02:14:50.204Z,100858.49
2019-05-26T02:17:23.774Z,100866.33
2019-05-26T02:19:57.301Z,100866.78
2019-05-26T02:22:30.823Z,100862.38
2019-05-26T02:25:04.471Z,100869.32
2019-05-26T02:27:37.953Z,100863.20
2019-05-26T02:30:12.028Z,100853.98
2019-05-26T02:32:45.551Z,100854.10
2019-05-26T02:35:19.417Z,100858.11
2019-05-26T02:37:52.909Z,100860.67
2019-05-26T02:40:28.028Z,100860.69
2019-05-26T02:43:01.530Z,100859.84
2019-05-26T02:45:35.156Z,100866.41
2019-05-26T02:48:08.937Z,100861.97
2019-05-26T02:50:42.576Z,100858.81
2019-05-26T02:53:16.246Z,100866.25
2019-05-26T02:55:50.009Z,100864.91
2019-05-26T02:58:24.056Z,100860.55
2019-05-26T03:00:57.675Z,100859.55
2019-05-26T03:03:31.459Z,100854.26
2019-05-26T03:06:06.683Z,100847.66
2019-05-26T03:08:41.246Z,100846.80
2019-05-26T03:11:16.150Z,100852.45
2019-05-26T03:13:51.649Z,100848.06
2019-05-26T03:16:25.151Z,100842.95
2019-05-26T03:19:01.067Z,100845.99
2019-05-26T03:21:36.980Z,100841.15
2019-05-26T03:24:10.908Z,100846.38
2019-05-26T03:26:44.503Z,100849.06
2019-05-26T03:29:18.095Z,100840.23
2019-05-26T03:31:51.645Z,100851.64
2019-05-26T03:34:25.455Z,100847.28
2019-05-26T03:36:59.189Z,100847.74
2019-05-26T03:39:44.192Z,100847.79
2019-05-26T03:42:08.113Z,100852.94
2019-05-26T03:44:41.659Z,100851.14
2019-05-26T03:47:16.836Z,100848.96
2019-05-26T03:49:50.407Z,100845.77
2019-05-26T03:52:24.329Z,100851.02
2019-05-26T03:54:57.840Z,100843.91
2019-05-26T03:57:31.331Z,100845.66
2019-05-26T04:00:05.565Z,100848.67
2019-05-26T04:02:39.193Z,100850.81
2019-05-26T04:05:12.855Z,100850.72
2019-05-26T04:07:46.362Z,100860.80
2019-05-26T04:10:19.944Z,100861.68
2019-05-26T04:12:53.560Z,100856.81
2019-05-26T04:15:27.374Z,100856.30
2019-05-26T04:18:01.159Z,100861.15
2019-05-26T04:20:34.651Z,100857.09
2019-05-26T04:23:08.200Z,100859.23
2019-05-26T04:25:42.764Z,100861.80
2019-05-26T04:28:16.226Z,100851.61
2019-05-26T04:30:49.654Z,100848.86
2019-05-26T04:33:23.048Z,100857.19
2019-05-26T04:35:56.547Z,100854.14
2019-05-26T04:38:29.957Z,100857.16
2019-05-26T04:41:03.399Z,100856.22
2019-05-26T04:43:36.855Z,100852.60
2019-05-26T04:46:10.328Z,100854.78
2019-05-26T04:48:43.862Z,100853.84
2019-05-26T04:51:18.459Z,100849.85
2019-05-26T04:53:52.627Z,100847.56
2019-05-26T04:56:26.236Z,100838.69
2019-05-26T04:58:59.713Z,100848.19
2019-05-26T05:01:33.296Z,100843.23
2019-05-26T05:04:06.929Z,100853.55
2019-05-26T05:06:42.795Z,100854.66
2019-05-26T05:09:16.506Z,100847.95
2019-05-26T05:11:50.436Z,100847.33
2019-05-26T05:14:25.183Z,100853.38
2019-05-26T05:16:58.831Z,100853.14
2019-05-26T05:19:32.413Z,100851.78
2019-05-26T05:22:06.135Z,100856.88
2019-05-26T05:24:39.727Z,100858.14
2019-05-26T05:27:13.347Z,100852.63
2019-05-26T05:29:47.388Z,100856.70
2019-05-26T05:32:20.997Z,100857.37
2019-05-26T05:34:54.638Z,100858.06
2019-05-26T05:37:28.864Z,100856.17
2019-05-26T05:40:04.220Z,100854.79
2019-05-26T05:42:37.702Z,100858.27
2019-05-26T05:45:12.819Z,100859.75
2019-05-26T05:47:48.459Z,100860.94
2019-05-26T05:50:25.422Z,100855.84
2019-05-26T05:52:58.941Z,100858.61
2019-05-26T05:55:32.476Z,100858.83
2019-05-26T05:58:06.016Z,100853.55
2019-05-26T06:00:39.509Z,100846.03
2019-05-26T06:03:12.961Z,100854.23
2019-05-26T06:05:46.602Z,100854.88
2019-05-26T06:08:20.393Z,100860.48
2019-05-26T06:10:54.144Z,100855.55
2019-05-26T06:13:28.909Z,100858.09
2019-05-26T06:16:02.625Z,100851.40
2019-05-26T06:18:36.305Z,100852.58
2019-05-26T06:21:10.106Z,100858.51
2019-05-26T06:23:43.794Z,100853.57
2019-05-26T06:26:17.546Z,100854.64
2019-05-26T06:28:52.519Z,100848.96
2019-05-26T06:31:26.884Z,100856.14
2019-05-26T06:34:01.587Z,100859.95
2019-05-26T06:36:36.362Z,100854.11
2019-05-26T06:39:10.878Z,100845.78
2019-05-26T06:41:45.133Z,100854.52
2019-05-26T06:44:18.983Z,100848.91
2019-05-26T06:46:55.555Z,100833.72
2019-05-26T06:49:29.347Z,100850.62
2019-05-26T06:52:03.103Z,100856.23
2019-05-26T06:54:37.060Z,100850.30
2019-05-26T06:57:12.288Z,100854.52
2019-05-26T06:59:46.450Z,100841.56
2019-05-26T07:02:20.340Z,100850.01
2019-05-26T07:04:54.172Z,100848.23
2019-05-26T07:07:28.060Z,100840.48
2019-05-26T07:10:01.897Z,100840.32
2019-05-26T07:12:38.881Z,100841.79
2019-05-26T07:15:13.706Z,100838.72
2019-05-26T07:17:47.471Z,100834.34
2019-05-26T07:20:25.096Z,100833.72
2019-05-26T07:22:58.634Z,100833.36
2019-05-26T07:25:32.416Z,100832.02
2019-05-26T07:28:07.006Z,100825.72
2019-05-26T07:30:44.029Z,100828.06
2019-05-26T07:33:17.872Z,100827.11
2019-05-26T07:35:51.443Z,100826.45
2019-05-26T07:38:25.273Z,100828.33
2019-05-26T07:40:59.052Z,100830.33
2019-05-26T07:43:33.466Z,100829.50
2019-05-26T07:46:07.274Z,100829.98
2019-05-26T07:48:41.058Z,100827.66
2019-05-26T07:51:16.455Z,100831.20
2019-05-26T07:53:55.854Z,100837.52
2019-05-26T07:56:27.488Z,100833.14
2019-05-26T07:59:00.845Z,100827.97
2019-05-26T08:01:36.186Z,100824.61
2019-05-26T08:04:09.387Z,100827.66
2019-05-26T08:06:43.000Z,100825.62
2019-05-26T08:09:17.279Z,100815.01
2019-05-26T08:11:50.946Z,100821.27
2019-05-26T08:14:24.257Z,100798.33
2019-05-26T08:16:57.500Z,100817.25
2019-05-26T08:19:30.917Z,100816.27
2019-05-26T08:22:04.158Z,100819.25
2019-05-26T08:24:37.514Z,100819.00
2019-05-26T08:27:10.827Z,100809.74
2019-05-26T08:29:44.056Z,100810.70
2019-05-26T08:32:17.323Z,100804.77
2019-05-26T08:34:50.637Z,100799.27
2019-05-26T08:37:23.893Z,100800.97
2019-05-26T08:39:59.588Z,100799.77
2019-05-26T08:42:44.107Z,100797.50
2019-05-26T08:45:08.290Z,100801.88
2019-05-26T08:47:41.434Z,100799.33
2019-05-26T08:50:15.035Z,100806.74
2019-05-26T08:52:48.172Z,100812.34
2019-05-26T08:55:23.188Z,100801.66
2019-05-26T08:57:56.426Z,100797.06
2019-05-26T09:00:29.736Z,100792.31
2019-05-26T09:03:02.999Z,100781.28
2019-05-26T09:05:36.246Z,100781.72
2019-05-26T09:08:09.481Z,100790.67
2019-05-26T09:10:42.914Z,100789.91
2019-05-26T09:13:16.319Z,100780.27
2019-05-26T09:15:49.553Z,100775.58
2019-05-26T09:18:22.901Z,100769.77
2019-05-26T09:20:56.146Z,100771.95
2019-05-26T09:23:29.355Z,100763.11
2019-05-26T09:26:02.665Z,100770.51
2019-05-26T09:28:35.974Z,100769.27
2019-05-26T09:31:09.464Z,100772.73
2019-05-26T09:33:42.573Z,100770.17
2019-05-26T09:36:15.784Z,100770.67
2019-05-26T09:38:49.033Z,100772.58
2019-05-26T09:41:22.668Z,100763.00
2019-05-26T09:43:56.542Z,100761.38
2019-05-26T09:46:30.048Z,100765.48
2019-05-26T09:49:03.973Z,100755.55
2019-05-26T09:51:40.242Z,100758.83
2019-05-26T09:54:14.028Z,100765.52
2019-05-26T09:56:47.901Z,100759.31
2019-05-26T09:59:21.664Z,100762.48
2019-05-26T10:01:54.955Z,100758.45
2019-05-26T10:04:28.332Z,100762.66
2019-05-26T10:07:01.607Z,100757.39
2019-05-26T10:09:35.108Z,100747.17
2019-05-26T10:12:08.578Z,100741.13
2019-05-26T10:14:42.071Z,100744.80
2019-05-26T10:17:15.507Z,100741.06
2019-05-26T10:19:49.054Z,100730.83
2019-05-26T10:22:22.394Z,100741.14
2019-05-26T10:24:55.706Z,100743.43
2019-05-26T10:27:28.992Z,100733.50
2019-05-26T10:30:02.325Z,100724.80
2019-05-26T10:32:35.642Z,100733.45
2019-05-26T10:35:09.191Z,100726.81
2019-05-26T10:37:42.330Z,100729.75
2019-05-26T10:40:16.198Z,100725.30
2019-05-26T10:42:49.435Z,100718.11
2019-05-26T10:45:23.777Z,100722.38
2019-05-26T10:47:57.274Z,100718.02
2019-05-26T10:50:30.499Z,100704.44
2019-05-26T10:53:04.116Z,100714.23
2019-05-26T10:55:38.378Z,100712.74
2019-05-26T10:58:11.440Z,100707.26
2019-05-26T11:00:44.684Z,100694.44
2019-05-26T11:03:17.896Z,100678.02
2019-05-26T11:05:51.149Z,100681.77
2019-05-26T11:08:24.788Z,100686.01
2019-05-26T11:10:58.225Z,100690.55
2019-05-26T11:13:31.456Z,100682.17
2019-05-26T11:16:04.567Z,100674.45
2019-05-26T11:18:37.857Z,100683.41
2019-05-26T11:21:12.534Z,100674.87
2019-05-26T11:23:46.334Z,100664.95
2019-05-26T11:26:19.636Z,100659.59
2019-05-26T11:28:53.102Z,100659.78
2019-05-26T11:31:26.817Z,100647.80
2019-05-26T11:34:01.462Z,100655.09
2019-05-26T11:36:34.756Z,100646.47
2019-05-26T11:39:09.486Z,100640.50
2019-05-26T11:41:42.871Z,100644.22
2019-05-26T11:44:18.226Z,100651.23
2019-05-26T11:46:51.214Z,100643.38
2019-05-26T11:49:24.544Z,100635.91
2019-05-26T11:51:57.896Z,100632.27
2019-05-26T11:54:34.292Z,100632.56
2019-05-26T11:57:06.258Z,100624.11
2019-05-26T11:59:39.509Z,100625.83
2019-05-26T12:02:12.780Z,100627.43
2019-05-26T12:04:46.024Z,100627.48
2019-05-26T12:07:19.942Z,100620.70
2019-05-26T12:09:53.202Z,100620.31
2019-05-26T12:12:26.565Z,100619.94
2019-05-26T12:14:59.802Z,100611.27
2019-05-26T12:17:33.052Z,100603.20
2019-05-26T12:20:06.957Z,100604.13
2019-05-26T12:22:40.764Z,100600.20
2019-05-26T12:25:14.196Z,100588.39
2019-05-26T12:27:47.561Z,100586.14
2019-05-26T12:30:21.308Z,100588.64
2019-05-26T12:32:54.696Z,100582.45
2019-05-26T12:35:43.881Z,100579.34
2019-05-26T12:38:20.498Z,100578.21
2019-05-26T12:40:54.086Z,100577.39
2019-05-26T12:43:27.971Z,100572.63
2019-05-26T12:46:01.401Z,100566.48
2019-05-26T12:48:34.785Z,100568.67
2019-05-26T12:51:08.161Z,100565.60
2019-05-26T12:53:41.439Z,100561.63
2019-05-26T12:56:14.938Z,100568.23
2019-05-26T12:58:48.365Z,100559.11
2019-05-26T13:01:21.742Z,100558.20
2019-05-26T13:03:55.651Z,100545.28
2019-05-26T13:06:30.451Z,100552.08
2019-05-26T13:09:03.951Z,100545.14
2019-05-26T13:11:37.332Z,100541.33
2019-05-26T13:14:10.814Z,100551.07
2019-05-26T13:16:44.262Z,100541.91
2019-05-26T13:19:17.690Z,100539.11
2019-05-26T13:21:51.146Z,100546.69
2019-05-26T13:24:24.392Z,100540.27
2019-05-26T13:26:57.595Z,100537.33
2019-05-26T13:29:32.170Z,100534.96
2019-05-26T13:32:05.390Z,100528.35
2019-05-26T13:34:38.872Z,100532.81
2019-05-26T13:37:12.258Z,100533.20
2019-05-26T13:39:45.757Z,100535.39
2019-05-26T13:42:19.198Z,100529.38
2019-05-26T13:44:52.734Z,100530.27
2019-05-26T13:47:26.702Z,100522.34
2019-05-26T13:50:00.010Z,100522.83
2019-05-26T13:52:33.399Z,100521.00
2019-05-26T13:55:07.587Z,100522.64
2019-05-26T13:57:40.925Z,100511.61
2019-05-26T14:00:16.487Z,100512.41
2019-05-26T14:02:50.466Z,100508.64
2019-05-26T14:05:24.115Z,100509.05
2019-05-26T14:07:57.329Z,100512.09
2019-05-26T14:10:36.618Z,100506.39
2019-05-26T14:13:10.812Z,100501.56
2019-05-26T14:15:45.052Z,100497.47
2019-05-26T14:18:18.369Z,100501.30
2019-05-26T14:20:51.679Z,100505.45
2019-05-26T14:23:24.941Z,100502.27
2019-05-26T14:25:58.308Z,100495.31
2019-05-26T14:28:31.765Z,100494.48
2019-05-26T14:31:06.124Z,100491.23
2019-05-26T14:33:39.507Z,100485.40
2019-05-26T14:36:12.826Z,100483.44
2019-05-26T14:38:46.019Z,100478.69
2019-05-26T14:41:19.332Z,100469.59
2019-05-26T14:43:52.619Z,100464.00
2019-05-26T14:46:25.849Z,100469.05
2019-05-26T14:48:59.298Z,100458.08
2019-05-26T14:51:32.510Z,100463.61
2019-05-26T14:54:05.782Z,100467.78
2019-05-26T14:56:40.212Z,100465.27
2019-05-26T14:59:13.616Z,100460.34
2019-05-26T15:01:46.965Z,100461.91
2019-05-26T15:04:20.442Z,100459.42
2019-05-26T15:06:53.527Z,100468.11
2019-05-26T15:09:26.670Z,100459.16
2019-05-26T15:12:01.012Z,100466.28
2019-05-26T15:14:34.190Z,100464.61
2019-05-26T15:17:07.371Z,100460.00
2019-05-26T15:19:40.598Z,100452.55
2019-05-26T15:22:13.752Z,100450.48
2019-05-26T15:24:46.964Z,100464.28
2019-05-26T15:27:20.208Z,100453.38
2019-05-26T15:29:53.493Z,100454.65
2019-05-26T15:32:26.783Z,100454.88
2019-05-26T15:35:00.099Z,100444.77
2019-05-26T15:37:33.363Z,100446.61
2019-05-26T15:40:07.155Z,100436.38
2019-05-26T15:42:40.523Z,100435.20
2019-05-26T15:45:14.022Z,100434.73
2019-05-26T15:47:47.288Z,100427.18
2019-05-26T15:50:20.723Z,100429.66
2019-05-26T15:52:54.048Z,100424.56
2019-05-26T15:55:27.321Z,100414.86
2019-05-26T15:58:00.686Z,100424.97
2019-05-26T16:00:33.918Z,100420.73
2019-05-26T16:03:07.276Z,100421.29
2019-05-26T16:05:40.608Z,100419.20
2019-05-26T16:08:13.897Z,100422.95
2019-05-26T16:10:47.229Z,100423.28
2019-05-26T16:13:20.493Z,100424.36
2019-05-26T16:15:53.776Z,100424.09
2019-05-26T16:18:27.052Z,100425.53
2019-05-26T16:21:03.309Z,100437.59
2019-05-26T16:23:35.018Z,100431.97
2019-05-26T16:26:09.370Z,100431.13
2019-05-26T16:28:42.623Z,100436.73
2019-05-26T16:31:16.093Z,100428.80
2019-05-26T16:33:49.345Z,100426.97
2019-05-26T16:36:24.178Z,100430.14
2019-05-26T16:38:57.595Z,100421.84
2019-05-26T16:41:32.558Z,100414.16
2019-05-26T16:44:05.890Z,100423.67
2019-05-26T16:46:39.418Z,100418.05
2019-05-26T16:49:12.590Z,100420.44
2019-05-26T16:51:45.971Z,100415.08
2019-05-26T16:54:19.233Z,100419.19
2019-05-26T16:56:52.533Z,100416.87
2019-05-26T16:59:25.724Z,100416.70
2019-05-26T17:01:58.901Z,100424.02
2019-05-26T17:04:33.184Z,100419.94
2019-05-26T17:07:06.479Z,100416.41
2019-05-26T17:09:39.732Z,100416.33
2019-05-26T17:12:12.974Z,100415.48
2019-05-26T17:14:46.318Z,100412.05
2019-05-26T17:17:19.554Z,100411.30
2019-05-26T17:19:53.222Z,100404.51
2019-05-26T17:22:26.548Z,100409.02
2019-05-26T17:25:00.149Z,100404.02
2019-05-26T17:27:33.393Z,100399.87
2019-05-26T17:30:06.993Z,100400.45
2019-05-26T17:32:40.245Z,100395.19
2019-05-26T17:35:13.695Z,100400.28
2019-05-26T17:37:46.928Z,100395.56
2019-05-26T17:40:22.982Z,100393.79
2019-05-26T17:42:56.224Z,100390.09
2019-05-26T17:45:29.554Z,100397.45
2019-05-26T17:48:02.646Z,100393.88
2019-05-26T17:50:35.973Z,100400.30
2019-05-26T17:53:09.217Z,100400.61
2019-05-26T17:55:42.551Z,100399.59
2019-05-26T17:58:15.841Z,100400.63
2019-05-26T18:00:49.178Z,100398.17
2019-05-26T18:03:22.311Z,100399.42
2019-05-26T18:05:55.584Z,100399.11
2019-05-26T18:08:31.330Z,100398.48
2019-05-26T18:11:04.584Z,100402.41
2019-05-26T18:13:37.906Z,100403.95
2019-05-26T18:16:11.138Z,100402.92
2019-05-26T18:18:44.313Z,100408.09
2019-05-26T18:21:17.534Z,100403.93
2019-05-26T18:23:50.831Z,100402.22
2019-05-26T18:26:24.013Z,100403.37
2019-05-26T18:28:57.220Z,100408.36
2019-05-26T18:31:30.482Z,100382.70
2019-05-26T18:34:03.776Z,100406.64
2019-05-26T18:36:37.015Z,100406.45
2019-05-26T18:39:11.903Z,100406.58
2019-05-26T18:41:45.260Z,100409.06
2019-05-26T18:44:18.496Z,100410.91
2019-05-26T18:46:53.676Z,100409.66
2019-05-26T18:49:26.880Z,100409.46
2019-05-26T18:52:00.963Z,100404.69
2019-05-26T18:54:34.510Z,100402.02
2019-05-26T18:57:07.693Z,100414.16
2019-05-26T18:59:41.020Z,100413.28
2019-05-26T19:02:14.250Z,100420.53
2019-05-26T19:04:48.026Z,100414.39
2019-05-26T19:07:32.669Z,100418.52
2019-05-26T19:10:09.478Z,100415.16
2019-05-26T19:12:42.804Z,100416.70
2019-05-26T19:15:16.734Z,100416.51
2019-05-26T19:17:49.917Z,100409.47
2019-05-26T19:20:23.711Z,100416.59
2019-05-26T19:23:04.753Z,100418.22
2019-05-26T19:25:46.444Z,100415.75
2019-05-26T19:28:22.802Z,100414.13
2019-05-26T19:31:00.198Z,100410.90
2019-05-26T19:33:36.995Z,100409.73
2019-05-26T19:36:10.900Z,100412.03
2019-05-26T19:38:45.460Z,100413.17
2019-05-26T19:41:18.837Z,100408.31
2019-05-26T19:43:52.079Z,100408.20
2019-05-26T19:46:25.365Z,100411.15
2019-05-26T19:48:58.602Z,100407.83
2019-05-26T19:51:32.822Z,100406.58
2019-05-26T19:54:07.192Z,100406.37
2019-05-26T19:56:42.558Z,100401.88
2019-05-26T19:59:19.169Z,100406.27
2019-05-26T20:01:52.500Z,100408.25
2019-05-26T20:04:25.860Z,100403.59
2019-05-26T20:06:59.192Z,100406.39
2019-05-26T20:09:32.902Z,100398.50
2019-05-26T20:12:06.674Z,100402.67
2019-05-26T20:14:40.399Z,100393.52
2019-05-26T20:17:13.712Z,100394.94
2019-05-26T20:19:46.888Z,100395.61
2019-05-26T20:22:20.032Z,100393.88
2019-05-26T20:24:54.186Z,100398.92
2019-05-26T20:27:27.779Z,100401.38
2019-05-26T20:30:01.034Z,100397.09
2019-05-26T20:32:34.240Z,100397.36
2019-05-26T20:35:08.024Z,100393.55
2019-05-26T20:37:41.294Z,100382.97
2019-05-26T20:40:14.934Z,100390.67
2019-05-26T20:42:48.721Z,100387.80
2019-05-26T20:45:22.896Z,100391.50
2019-05-26T20:48:01.891Z,100385.87
2019-05-26T20:50:36.047Z,100385.19
2019-05-26T20:53:24.635Z,100387.48
2019-05-26T20:55:58.769Z,100378.63
2019-05-26T20:58:32.172Z,100379.75
2019-05-26T21:01:05.811Z,100374.05
2019-05-26T21:03:39.466Z,100372.31
2019-05-26T21:06:12.768Z,100374.31
2019-05-26T21:08:46.141Z,100370.11
2019-05-26T21:11:19.512Z,100367.70
2019-05-26T21:13:53.094Z,100366.08
2019-05-26T21:16:26.809Z,100368.34
2019-05-26T21:19:01.266Z,100370.41
2019-05-26T21:21:34.654Z,100372.20
2019-05-26T21:24:08.032Z,100367.65
2019-05-26T21:26:41.462Z,100375.20
2019-05-26T21:29:15.630Z,100364.58
2019-05-26T21:31:57.411Z,100366.09
2019-05-26T21:34:30.884Z,100364.47
2019-05-26T21:37:04.956Z,100367.46
2019-05-26T21:39:38.357Z,100365.45
2019-05-26T21:42:15.799Z,100365.71
2019-05-26T21:44:50.366Z,100362.52
2019-05-26T21:47:23.621Z,100358.30
2019-05-26T21:49:56.939Z,100360.67
2019-05-26T21:52:32.186Z,100362.25
2019-05-26T21:55:21.624Z,100365.46
2019-05-26T21:57:55.262Z,100364.45
2019-05-26T22:00:39.330Z,100354.60
2019-05-26T22:03:12.950Z,100359.94
2019-05-26T22:05:46.384Z,100360.05
2019-05-26T22:08:19.823Z,100360.77
2019-05-26T22:10:53.089Z,100360.06
2019-05-26T22:13:26.425Z,100355.45
2019-05-26T22:15:59.761Z,100353.27
2019-05-26T22:18:33.161Z,100353.01
2019-05-26T22:21:06.400Z,100346.60
2019-05-26T22:23:39.660Z,100348.00
2019-05-26T22:26:12.901Z,100348.72
2019-05-26T22:28:46.628Z,100343.40
2019-05-26T22:31:19.890Z,100339.24
2019-05-26T22:33:53.156Z,100337.78
2019-05-26T22:36:26.494Z,100330.21
2019-05-26T22:38:59.785Z,100324.11
2019-05-26T22:41:33.048Z,100317.53
2019-05-26T22:44:06.423Z,100317.70
2019-05-26T22:46:39.755Z,100330.28
2019-05-26T22:49:13.110Z,100316.61
2019-05-26T22:51:46.451Z,100318.48
2019-05-26T22:54:19.710Z,100326.70
2019-05-26T22:56:52.954Z,100319.73
2019-05-26T22:59:26.324Z,100323.86
2019-05-26T23:01:59.638Z,100321.84
2019-05-26T23:04:33.075Z,100318.78
2019-05-26T23:07:06.143Z,100316.22
2019-05-26T23:09:39.306Z,100316.36
2019-05-26T23:12:13.881Z,100312.06
2019-05-26T23:14:48.430Z,100313.15
2019-05-26T23:17:23.139Z,100315.42
2019-05-26T23:19:57.535Z,100318.31
2019-05-26T23:22:32.235Z,100313.06
2019-05-26T23:25:07.522Z,100310.03
2019-05-26T23:27:42.154Z,100311.42
2019-05-26T23:30:16.875Z,100310.16
2019-05-26T23:32:51.870Z,100311.66
2019-05-26T23:35:26.553Z,100310.02
2019-05-26T23:38:01.244Z,100311.95
2019-05-26T23:40:35.071Z,100304.14
2019-05-26T23:43:10.143Z,100307.03
2019-05-26T23:45:43.479Z,100299.73
2019-05-26T23:48:16.802Z,100304.73
2019-05-26T23:50:49.980Z,100300.72
2019-05-26T23:53:23.061Z,100301.48
2019-05-26T23:55:56.418Z,100294.59
2019-05-26T23:58:29.723Z,100295.77
